Airport View

Enter AWOS ICAO identifier for current METAR.

ex. KFNL

KC62 080645Z AUTO 00000KT 10SM CLR 12/12 A3020 RMK AO2 T01270127

8 Aug 2020 06:44

Frequency: 119.925

Phone: 260-347-2967

Other Area AWOS: KANQ - KGWB - KSMD - KIRS

TAF KFWA 080520Z 0806/0906 00000KT P6SM FEW060 FM081400 20006KT P6SM FEW060